Stormwatcher's Retreat Logo




                  Temp     Hi    Low   Out    Dew  Wind  Wind   Wind    Hi    Hi   Wind   Heat    THW   THSW                Rain  Solar   Solar Hi Solar   UV    UV    Hi     Heat    Cool    In     In    In     In     In   In Air          Wind  Wind    ISS   Arc.
  Date    Time     Out   Temp   Temp   Hum    Pt. Speed   Dir    Run Speed   Dir  Chill  Index  Index  Index   Bar    Rain  Rate   Rad.  Energy    Rad.  Index  Dose   UV     D-D     D-D    Temp   Hum    Dew   Heat    EMC Density     ET   Samp   Tx   Recept  Int.
------------------------------------------------------------------------------------------------------------------------------------------------------------------------------------------------------------------------------------------------------------------------
 9/22/17 12:10a   50.5   50.7   50.5    94   48.8   2.0     E   0.33   4.0   ESE   50.5   50.9   50.9   48.1  30.013  0.00  0.00     0     0.00      0     0.0  0.00   0.0   0.101   0.000   71.3    53   53.3   70.3   9.80  .0739    0.000   212    5    100.0   10 
 9/22/17 12:20a   50.3   50.5   50.3    94   48.6   3.0     E   0.50   6.0   ESE   50.0   50.7   50.4   47.6  30.012  0.00  0.00     0     0.00      0     0.0  0.00   0.0   0.102   0.000   71.3    53   53.3   70.3   9.80  .0739    0.000   212    5    100.0   10 
 9/22/17 12:30a   50.3   50.3   50.3    95   48.9   3.0   ESE   0.50   7.0   ESE   50.0   50.8   50.5   47.7  30.014  0.00  0.00     0     0.00      0     0.0  0.00   0.0   0.102   0.000   71.2    53   53.2   70.1   9.80  .0740    0.000   210    5    100.0   10 
 9/22/17 12:40a   50.3   50.3   50.3    95   48.9   2.0   ESE   0.33   4.0   ESE   50.3   50.8   50.8   48.0  30.017  0.00  0.00     0     0.00      0     0.0  0.00   0.0   0.102   0.000   71.2    53   53.2   70.1   9.80  .0740    0.000   211    5    100.0   10 
 9/22/17 12:50a   50.1   50.3   50.1    95   48.7   1.0   ESE   0.17   2.0   ESE   50.1   50.6   50.6   47.8  30.017  0.00  0.00     0     0.00      0     0.0  0.00   0.0   0.103   0.000   71.1    53   53.1   70.0   9.81  .0740    0.000   214    5    100.0   10 
 9/22/17  1:00a   49.9   50.0   49.9    95   48.5   1.0   ESE   0.17   3.0     E   49.9   50.4   50.4   47.6  30.014  0.00  0.00     0     0.00      0     0.0  0.00   0.0   0.105   0.000   71.1    53   53.1   70.0   9.81  .0740    0.000   211    5    100.0   10 
 9/22/17  1:10a   49.8   50.0   49.8    95   48.4   1.0   ESE   0.17   2.0   ESE   49.8   50.3   50.3   47.5  30.018  0.00  0.00     0     0.00      0     0.0  0.00   0.0   0.106   0.000   71.1    53   53.1   70.0   9.81  .0740    0.000   212    5    100.0   10 
 9/22/17  1:20a   49.7   49.8   49.7    95   48.3   0.0   ESE   0.00   2.0     E   49.7   50.2   50.2   47.4  30.020  0.00  0.00     0     0.00      0     0.0  0.00   0.0   0.106   0.000   71.0    53   53.0   69.8   9.81  .0740    0.000   214    5    100.0   10 
 9/22/17  1:30a   49.6   49.7   49.6    95   48.2   1.0   ESE   0.17   3.0     E   49.6   50.1   50.1   47.3  30.018  0.00  0.00     0     0.00      0     0.0  0.00   0.0   0.107   0.000   71.0    53   53.0   69.8   9.81  .0740    0.000   212    5    100.0   10 
 9/22/17  1:40a   49.6   49.6   49.5    95   48.2   2.0   ESE   0.33   5.0    SE   49.6   50.1   50.1   47.3  30.019  0.00  0.00     0     0.00      0     0.0  0.00   0.0   0.107   0.000   70.9    53   52.9   69.7   9.81  .0740    0.000   211    5    100.0   10 
 9/22/17  1:50a   49.7   49.7   49.6    95   48.3   2.0   ESE   0.33   4.0   ESE   49.7   50.2   50.2   47.4  30.019  0.00  0.00     0     0.00      0     0.0  0.00   0.0   0.106   0.000   70.9    53   52.9   69.7   9.81  .0740    0.000   212    5    100.0   10 
 9/22/17  2:00a   49.6   49.7   49.6    95   48.2   3.0   ESE   0.50   6.0   ESE   49.2   50.1   49.7   46.9  30.018  0.00  0.00     0     0.00      0     0.0  0.00   0.0   0.107   0.000   70.9    53   52.9   69.7   9.81  .0740    0.000   211    5    100.0   10 
 9/22/17  2:10a   49.4   49.6   49.4    95   48.0   2.0   ESE   0.33   3.0   ESE   49.4   49.9   49.9   47.1  30.016  0.00  0.00     0     0.00      0     0.0  0.00   0.0   0.108   0.000   70.8    53   52.8   69.6   9.82  .0740    0.000   213    5    100.0   10 
 9/22/17  2:20a   49.2   49.4   49.2    95   47.8   1.0   ESE   0.17   3.0     E   49.2   49.7   49.7   46.9  30.021  0.00  0.00     0     0.00      0     0.0  0.00   0.0   0.110   0.000   70.8    53   52.8   69.6   9.82  .0741    0.000   214    5    100.0   10 
 9/22/17  2:30a   49.1   49.2   49.1    95   47.7   0.0   ESE   0.00   2.0   ESE   49.1   49.6   49.6   46.8  30.019  0.00  0.00     0     0.00      0     0.0  0.00   0.0   0.110   0.000   70.7    53   52.7   69.4   9.82  .0741    0.000   211    5    100.0   10 
 9/22/17  2:40a   49.0   49.1   49.0    95   47.6   0.0   ESE   0.00   2.0   ESE   49.0   49.5   49.5   46.7  30.020  0.00  0.00     0     0.00      0     0.0  0.00   0.0   0.111   0.000   70.7    53   52.7   69.4   9.82  .0741    0.000   212    5    100.0   10 
 9/22/17  2:50a   48.8   49.0   48.8    95   47.4   1.0   ESE   0.17   3.0   ESE   48.8   49.3   49.3   46.5  30.021  0.00  0.00     0     0.00      0     0.0  0.00   0.0   0.113   0.000   70.6    53   52.6   69.3   9.83  .0741    0.000   214    5    100.0   10 
 9/22/17  3:00a   48.6   48.8   48.6    95   47.2   0.0   ESE   0.00   2.0   ESE   48.6   49.1   49.1   46.3  30.019  0.00  0.00     0     0.00      0     0.0  0.00   0.0   0.114   0.000   70.6    52   52.1   69.2   9.64  .0741    0.000   213    5    100.0   10 
 9/22/17  3:10a   48.5   48.7   48.5    95   47.1   0.0   ESE   0.00   2.0   ESE   48.5   49.0   49.0   46.2  30.022  0.00  0.00     0     0.00      0     0.0  0.00   0.0   0.115   0.000   70.5    52   52.0   69.1   9.64  .0741    0.000   213    5    100.0   10 
 9/22/17  3:20a   48.5   48.5   48.5    95   47.1   1.0   ESE   0.17   2.0   ESE   48.5   49.0   49.0   46.2  30.020  0.00  0.00     0     0.00      0     0.0  0.00   0.0   0.115   0.000   70.5    52   52.0   69.1   9.64  .0741    0.000   213    5    100.0   10 
 9/22/17  3:30a   48.5   48.5   48.4    95   47.1   0.0   ESE   0.00   3.0    SE   48.5   49.0   49.0   46.2  30.022  0.00  0.00     0     0.00      0     0.0  0.00   0.0   0.115   0.000   70.5    52   52.0   69.1   9.64  .0741    0.000   211    5    100.0   10 
 9/22/17  3:40a   48.4   48.5   48.4    95   47.0   1.0   ESE   0.17   2.0   ESE   48.4   48.8   48.8   46.0  30.024  0.00  0.00     0     0.00      0     0.0  0.00   0.0   0.115   0.000   70.4    52   51.9   69.0   9.64  .0742    0.000   212    5    100.0   10 
 9/22/17  3:50a   48.1   48.4   48.1    95   46.7   1.0   ESE   0.17   2.0   ESE   48.1   48.5   48.5   45.6  30.022  0.00  0.00     0     0.00      0     0.0  0.00   0.0   0.117   0.000   70.4    52   51.9   69.0   9.64  .0741    0.000   213    5    100.0   10 
 9/22/17  4:00a   48.3   48.3   48.1    96   47.2   0.0   ESE   0.00   2.0   ESE   48.3   48.8   48.8   46.0  30.023  0.01  0.00     0     0.00      0     0.0  0.00   0.0   0.116   0.000   70.3    52   51.8   68.9   9.64  .0742    0.000   212    5    100.0   10 
 9/22/17  4:10a   48.7   48.7   48.3    96   47.6   0.0     E   0.00   2.0   ESE   48.7   49.2   49.2   46.4  30.028  0.00  0.00     0     0.00      0     0.0  0.00   0.0   0.113   0.000   70.3    52   51.8   68.9   9.64  .0742    0.000   211    5    100.0   10 
 9/22/17  4:20a   48.2   48.7   48.2    95   46.8   0.0   ESE   0.00   2.0   ESE   48.2   48.6   48.6   45.7  30.028  0.00  0.00     0     0.00      0     0.0  0.00   0.0   0.117   0.000   70.3    52   51.8   68.9   9.64  .0742    0.000   212    5    100.0   10 
 9/22/17  4:30a   47.8   48.2   47.8    95   46.4   0.0   ESE   0.00   3.0   ESE   47.8   48.2   48.2   45.3  30.028  0.00  0.00     0     0.00      0     0.0  0.00   0.0   0.119   0.000   70.2    52   51.7   68.7   9.65  .0742    0.000   213    5    100.0   10 
 9/22/17  4:40a   47.6   47.8   47.6    95   46.2   2.0     E   0.33   3.0     E   47.6   48.0   48.0   45.1  30.027  0.00  0.00     0     0.00      0     0.0  0.00   0.0   0.121   0.000   70.2    52   51.7   68.7   9.65  .0742    0.000   212    5    100.0   10 
 9/22/17  4:50a   47.6   47.7   47.5    95   46.2   1.0     E   0.17   4.0   ESE   47.6   48.0   48.0   45.1  30.027  0.00  0.00     0     0.00      0     0.0  0.00   0.0   0.121   0.000   70.1    52   51.7   68.6   9.65  .0742    0.000   210    5    100.0   10 
 9/22/17  5:00a   47.5   47.6   47.5    95   46.1   1.0   ESE   0.17   2.0     E   47.5   47.8   47.8   44.9  30.027  0.00  0.00     0     0.00      0     0.0  0.00   0.0   0.122   0.000   70.1    52   51.7   68.6   9.65  .0742    0.000   213    5    100.0   10 
 9/22/17  5:10a   47.5   47.6   47.5    95   46.1   0.0   ESE   0.00   2.0   ESE   47.5   47.8   47.8   44.9  30.028  0.00  0.00     0     0.00      0     0.0  0.00   0.0   0.122   0.000   70.0    52   51.6   68.5   9.65  .0742    0.000   213    5    100.0   10 
 9/22/17  5:20a   47.5   47.6   47.5    95   46.1   0.0   ESE   0.00   2.0   ESE   47.5   47.8   47.8   44.9  30.031  0.00  0.00     0     0.00      0     0.0  0.00   0.0   0.122   0.000   70.0    52   51.6   68.5   9.65  .0742    0.000   208    5    100.0   10 
 9/22/17  5:30a   47.4   47.5   47.4    95   46.0   0.0   ESE   0.00   2.0   ESE   47.4   47.7   47.7   44.8  30.030  0.00  0.00     0     0.00      0     0.0  0.00   0.0   0.122   0.000   69.9    52   51.5   68.4   9.65  .0743    0.000   213    5    100.0   10 
 9/22/17  5:40a   47.0   47.4   47.0    95   45.6   1.0   ESE   0.17   6.0     E   47.0   47.3   47.3   44.4  30.034  0.00  0.00     0     0.00      0     0.0  0.00   0.0   0.125   0.000   69.9    52   51.5   68.4   9.65  .0743    0.000   210    5    100.0   10 
 9/22/17  5:50a   46.9   47.0   46.9    95   45.5   2.0   ESE   0.33   7.0   ESE   46.9   47.2   47.2   44.3  30.036  0.00  0.00     0     0.00      0     0.0  0.00   0.0   0.126   0.000   69.9    52   51.5   68.4   9.65  .0743    0.000   213    5    100.0   10 
 9/22/17  6:00a   46.9   47.0   46.9    95   45.5   1.0   ESE   0.17   4.0   ENE   46.9   47.2   47.2   44.3  30.038  0.00  0.00     0     0.00      0     0.0  0.00   0.0   0.126   0.000   69.8    52   51.4   68.3   9.65  .0743    0.000   212    5    100.0   10 
 9/22/17  6:10a   47.3   47.3   46.8    96   46.2   2.0   ESE   0.33   7.0     E   47.3   47.7   47.7   44.8  30.036  0.00  0.00     0     0.00      0     0.0  0.00   0.0   0.123   0.000   69.7    52   51.3   68.3   9.66  .0743    0.000   212    5    100.0   10 
 9/22/17  6:20a   47.4   47.4   47.3    96   46.3   2.0   ESE   0.33   6.0   ESE   47.4   47.8   47.8   44.9  30.040  0.00  0.00     0     0.00      0     0.0  0.00   0.0   0.122   0.000   69.7    52   51.3   68.3   9.66  .0743    0.000   211    5    100.0   10 
 9/22/17  6:30a   47.5   47.5   47.4    96   46.4   1.0   ESE   0.17   4.0   ENE   47.5   47.9   47.9   45.0  30.042  0.00  0.00     0     0.00      0     0.0  0.00   0.0   0.122   0.000   69.7    52   51.3   68.3   9.66  .0743    0.000   212    5    100.0   10 
 9/22/17  6:40a   47.8   47.9   47.5    96   46.7   3.0     E   0.50   8.0   ESE   47.2   48.2   47.6   44.7  30.044  0.00  0.00     0     0.00      0     0.0  0.00   0.0   0.119   0.000   69.6    52   51.2   68.2   9.66  .0743    0.000   212    5    100.0   10 
 9/22/17  6:50a   48.1   48.1   47.9    96   47.0   4.0     E   0.67   8.0   ESE   46.7   48.5   47.1   44.3  30.047  0.00  0.00     0     0.00      0     0.0  0.00   0.0   0.117   0.000   69.5    52   51.1   68.1   9.66  .0744    0.000   211    5    100.0   10 
 9/22/17  7:00a   48.1   48.2   48.1    95   46.7   4.0     E   0.67   8.0     E   46.7   48.5   47.1   44.2  30.049  0.00  0.00     0     0.00      0     0.0  0.00   0.0   0.117   0.000   69.4    52   51.0   68.0   9.66  .0744    0.000   213    5    100.0   10 
 9/22/17  7:10a   48.1   48.2   48.1    95   46.7   4.0     E   0.67   9.0   ENE   46.7   48.5   47.1   44.3  30.050  0.00  0.00     3     0.04      7     0.0  0.00   0.0   0.117   0.000   69.4    52   51.0   68.0   9.66  .0744    0.000   214    5    100.0   10 
 9/22/17  7:20a   48.3   48.3   48.1    95   46.9   4.0     E   0.67   9.0     E   46.9   48.7   47.3   44.6  30.055  0.00  0.00    10     0.14     12     0.0  0.00   0.0   0.116   0.000   69.3    52   50.9   68.0   9.66  .0744    0.000   213    5    100.0   10 
 9/22/17  7:30a   48.3   48.3   48.2    95   46.9   4.0     E   0.67   8.0   ESE   46.9   48.7   47.3   44.7  30.053  0.00  0.00    14     0.20     16     0.0  0.00   0.0   0.116   0.000   69.3    52   50.9   68.0   9.66  .0744    0.000   213    5    100.0   10 
 9/22/17  7:40a   48.3   48.3   48.3    95   46.9   4.0   ESE   0.67   9.0    SE   46.9   48.7   47.3   44.9  30.052  0.00  0.00    20     0.29     23     0.0  0.00   0.0   0.116   0.000   69.2    52   50.8   67.9   9.67  .0744    0.000   211    5    100.0   10 
 9/22/17  7:50a   48.3   48.4   48.3    95   46.9   4.0   ESE   0.67  10.0     E   46.9   48.7   47.3   46.4  30.054  0.00  0.00    25     0.36     26     0.0  0.00   0.0   0.116   0.000   69.2    52   50.8   67.9   9.67  .0744    0.000   210    5    100.0   10 
 9/22/17  8:00a   48.2   48.3   48.2    95   46.8   5.0   ESE   0.83  10.0     E   46.1   48.6   46.5   45.8  30.055  0.00  0.00    30     0.43     32     0.0  0.00   0.0   0.117   0.000   69.2    52   50.8   67.9   9.67  .0744    0.000   211    5    100.0   10 
 9/22/17  8:10a   48.3   48.3   48.2    95   46.9   4.0     E   0.67   9.0   SSE   46.9   48.7   47.3   48.4  30.057  0.00  0.00    72     1.03    134     0.0  0.00   0.0   0.116   0.000   69.2    53   51.3   68.0   9.87  .0744    0.000   214    5    100.0   10 
 9/22/17  8:20a   48.7   48.7   48.3    95   47.3   4.0   ESE   0.67   8.0    SE   47.4   49.2   47.9   51.9  30.060  0.00  0.00   149     2.14    171     0.0  0.00   0.0   0.113   0.000   69.1    52   50.7   67.8   9.67  .0745    0.000   211    5    100.0   10 
 9/22/17  8:30a   49.0   49.0   48.7    95   47.6   4.0     E   0.67   9.0     E   47.7   49.5   48.2   53.3  30.062  0.00  0.00   181     2.59    190     0.0  0.00   0.0   0.111   0.000   69.1    52   50.7   67.8   9.67  .0745    0.000   212    5    100.0   10 
 9/22/17  8:40a   50.0   50.0   49.0    95   48.6   4.0   ESE   0.67   8.0     E   48.9   50.5   49.4   55.1  30.063  0.00  0.00   204     2.92    214     0.0  0.00   0.0   0.104   0.000   69.1    52   50.7   67.8   9.67  .0745    0.000   213    5    100.0   10 
 9/22/17  8:50a   51.4   51.4   50.1    95   50.0   3.0   ESE   0.50   7.0     E   51.2   51.8   51.6   58.0  30.066  0.00  0.00   228     3.27    239     0.0  0.00   0.0   0.094   0.000   69.0    53   51.2   67.8   9.87  .0745    0.000   212    5    100.0   10 
 9/22/17  9:00a   52.4   52.4   51.4    94   50.7   2.0     E   0.33   6.0   ESE   52.4   52.7   52.7   59.6  30.070  0.00  0.00   254     3.64    265     0.0  0.00   0.0   0.087   0.000   69.0    53   51.2   67.8   9.87  .0745    0.003   210    5    100.0   10 
 9/22/17  9:10a   52.8   52.8   52.4    94   51.1   2.0     E   0.33   7.0   ESE   52.8   53.1   53.1   60.5  30.068  0.00  0.00   280     4.01    292     0.0  0.00   0.0   0.085   0.000   69.0    53   51.2   67.8   9.87  .0745    0.000   212    5    100.0   10 
 9/22/17  9:20a   53.2   53.2   52.8    93   51.2   3.0   ESE   0.50   6.0   ESE   53.2   53.4   53.4   61.2  30.068  0.00  0.00   305     4.37    316     0.0  0.00   0.0   0.082   0.000   69.0    53   51.2   67.8   9.87  .0745    0.000   210    5    100.0   10 
 9/22/17  9:30a   53.9   53.9   53.2    93   51.9   2.0   ESE   0.33   6.0   ESE   53.9   54.1   54.1   62.3  30.067  0.00  0.00   331     4.74    343     0.0  0.00   0.0   0.077   0.000   69.0    53   51.2   67.8   9.87  .0745    0.000   213    5    100.0   10 
 9/22/17  9:40a   54.3   54.4   53.9    91   51.7   3.0   ESE   0.50   8.0     E   54.3   54.4   54.4   63.0  30.066  0.00  0.00   358     5.13    373     0.0  0.00   0.0   0.074   0.000   69.0    53   51.2   67.8   9.87  .0745    0.000   212    5    100.0   10 
 9/22/17  9:50a   54.6   54.7   54.3    91   52.0   4.0     E   0.67  10.0     E   54.2   54.7   54.3   63.3  30.074  0.00  0.00   389     5.58    401     0.0  0.00   0.0   0.072   0.000   69.0    53   51.2   67.8   9.87  .0745    0.000   212    5    100.0   10 
 9/22/17 10:00a   54.8   54.8   54.6    91   52.2   4.0    NE   0.67   9.0    NE   54.4   54.9   54.5   63.8  30.077  0.00  0.00   414     5.93    424     0.0  0.00   0.0   0.071   0.000   69.0    53   51.2   67.8   9.87  .0745    0.007   213    5    100.0   10 
 9/22/17 10:10a   53.7   54.8   53.7    90   50.8   4.0     N   0.67   8.0     N   53.1   53.8   53.2   62.5  30.077  0.00  0.00   433     6.21    448     0.0  0.00   0.0   0.078   0.000   69.0    53   51.2   67.8   9.87  .0745    0.000   214    5    100.0   10 
 9/22/17 10:20a   53.3   53.7   53.2    91   50.7   4.0     N   0.67   9.0     N   52.7   53.4   52.8   62.3  30.079  0.00  0.00   454     6.51    461     0.0  0.00   0.0   0.081   0.000   69.0    53   51.2   67.8   9.87  .0745    0.000   212    5    100.0   10 
 9/22/17 10:30a   54.2   54.2   53.3    92   51.9   4.0    NE   0.67   8.0    NE   53.7   54.3   53.8   63.5  30.079  0.00  0.00   474     6.79    485     0.0  0.00   0.0   0.075   0.000   69.1    53   51.2   67.9   9.87  .0745    0.000   212    5    100.0   10 
 9/22/17 10:40a   54.8   54.8   54.2    91   52.2   5.0    NE   0.83   9.0   ENE   53.9   54.9   54.0   63.9  30.082  0.00  0.00   495     7.10    503     0.0  0.00   0.0   0.071   0.000   69.1    53   51.2   67.9   9.87  .0745    0.000   214    5    100.0   10 
 9/22/17 10:50a   54.9   54.9   54.8    90   52.0   5.0    NE   0.83   9.0   NNE   54.0   55.0   54.1   64.1  30.085  0.00  0.00   518     7.43    527     0.0  0.00   0.0   0.070   0.000   69.2    53   51.3   68.0   9.87  .0745    0.000   211    5    100.0   10 
 9/22/17 11:00a   55.2   55.2   54.9    91   52.6   5.0    NE   0.83   9.0    NE   54.3   55.3   54.4   64.5  30.084  0.00  0.00   537     7.70    547     0.0  0.00   0.0   0.068   0.000   69.2    53   51.3   68.0   9.87  .0745    0.010   212    5    100.0   10 
 9/22/17 11:10a   55.3   55.4   55.2    90   52.4   5.0    NE   0.83  10.0   NNE   54.5   55.4   54.6   64.8  30.085  0.00  0.00   554     7.94    564     0.0  0.00   0.0   0.067   0.000   69.3    53   51.4   68.1   9.86  .0745    0.000   211    5    100.0   10 
 9/22/17 11:20a   55.6   55.7   55.3    90   52.7   5.0    NE   0.83   9.0    NE   54.8   55.7   54.9   65.2  30.086  0.00  0.00   570     8.17    578     0.0  0.00   0.0   0.065   0.000   69.3    53   51.4   68.1   9.86  .0745    0.000   210    5    100.0   10 
 9/22/17 11:30a   56.1   56.1   55.6    90   53.2   6.0    NE   1.00  10.0    NE   54.9   56.2   55.0   65.5  30.088  0.00  0.00   593     8.50    603     0.0  0.00   0.0   0.062   0.000   69.4    53   51.5   68.1   9.86  .0745    0.000   211    5    100.0   10 
 9/22/17 11:40a   56.4   56.4   56.1    89   53.2   6.0    NE   1.00  10.0   NNE   55.3   56.5   55.4   65.9  30.087  0.00  0.00   604     8.66    612     0.0  0.00   0.0   0.060   0.000   69.4    53   51.5   68.1   9.86  .0745    0.000   213    5    100.0   10 
 9/22/17 11:50a   56.7   56.7   56.4    88   53.2   6.0    NE   1.00  10.0    NE   55.6   56.7   55.6   66.2  30.088  0.00  0.00   620     8.89    628     0.0  0.00   0.0   0.058   0.000   69.5    53   51.6   68.2   9.86  .0745    0.000   211    5    100.0   10 
 9/22/17 12:00p   57.2   57.3   56.6    87   53.4   5.0    NE   0.83   8.0   NNE   56.6   57.2   56.6   67.3  30.087  0.00  0.00   633     9.07    640     0.0  0.00   0.0   0.054   0.000   69.5    53   51.6   68.2   9.86  .0744    0.012   210    5    100.0   10 
 9/22/17 12:10p   58.0   58.0   57.3    86   53.8   5.0    NE   0.83   9.0    NE   57.6   57.9   57.5   68.2  30.085  0.00  0.00   645     9.25    650     0.0  0.00   0.0   0.049   0.000   69.6    53   51.7   68.3   9.86  .0744    0.000   214    5    100.0   10 
 9/22/17 12:20p   58.6   58.7   58.0    86   54.4   5.0    NE   0.83   8.0   NNE   58.3   58.6   58.3   69.1  30.084  0.00  0.00   655     9.39    659     0.0  0.00   0.0   0.044   0.000   69.7    53   51.8   68.3   9.86  .0744    0.000   212    5    100.0   10 
 9/22/17 12:30p   58.6   58.6   58.2    86   54.4   4.0    NE   0.67   7.0   NNE   58.6   58.6   58.6   69.5  30.084  0.00  0.00   666     9.55    673     0.0  0.00   0.0   0.044   0.000   69.8    53   51.9   68.4   9.85  .0744    0.000   213    5    100.0   10 
 9/22/17 12:40p   58.6   59.1   58.5    84   53.8   4.0   NNE   0.67   8.0   NNE   58.6   58.5   58.5   69.3  30.084  0.00  0.00   673     9.65    677     0.0  0.00   0.0   0.044   0.000   69.9    53   52.0   68.5   9.85  .0744    0.000   212    5    100.0   10 
 9/22/17 12:50p   58.5   58.6   58.1    85   54.0   5.0   NNE   0.83   9.0   NNE   58.2   58.5   58.2   69.1  30.081  0.00  0.00   673     9.65    675     0.0  0.00   0.0   0.045   0.000   69.9    53   52.0   68.5   9.85  .0744    0.000   212    5    100.0   10 
 9/22/17  1:00p   59.0   59.1   58.5    84   54.2   5.0    NE   0.83  10.0   ENE   58.8   59.0   58.8   69.7  30.081  0.00  0.00   671     9.62    673     0.0  0.00   0.0   0.042   0.000   70.0    53   52.1   68.5   9.85  .0743    0.014   214    5    100.0   10 
 9/22/17  1:10p   59.7   59.7   59.0    83   54.5   6.0    NE   1.00   9.0    NE   59.2   59.7   59.2   70.1  30.081  0.00  0.00   673     9.65    675     0.0  0.00   0.0   0.037   0.000   70.1    53   52.2   68.7   9.85  .0743    0.000   213    5    100.0   10 
 9/22/17  1:20p   59.3   59.8   58.8    84   54.5   5.0    NE   0.83   8.0     N   59.2   59.3   59.2   70.1  30.083  0.00  0.00   674     9.66    677     0.0  0.00   0.0   0.040   0.000   70.3    53   52.4   68.9   9.84  .0743    0.000   211    5    100.0   10 
 9/22/17  1:30p   60.1   60.2   59.3    81   54.2   5.0    NE   0.83   9.0    NE   60.1   60.0   60.0   70.9  30.085  0.00  0.00   674     9.66    675     0.0  0.00   0.0   0.034   0.000   70.3    53   52.4   68.9   9.84  .0743    0.000   212    5    100.0   10 
 9/22/17  1:40p   60.7   60.7   60.1    81   54.8   5.0    NE   0.83   9.0   ENE   60.7   60.7   60.7   71.6  30.077  0.00  0.00   671     9.62    673     0.0  0.00   0.0   0.030   0.000   70.5    53   52.5   69.2   9.83  .0742    0.000   211    5    100.0   10 
 9/22/17  1:50p   61.4   61.4   60.7    79   54.8   5.0    NE   0.83   8.0   NNE   61.4   61.4   61.4   72.3  30.073  0.00  0.00   667     9.56    670     0.0  0.00   0.0   0.025   0.000   70.5    53   52.5   69.2   9.83  .0742    0.000   213    5    100.0   10 
 9/22/17  2:00p   61.2   62.0   61.2    77   53.9   4.0   NNE   0.67   7.0   NNE   61.2   61.0   61.0   71.8  30.072  0.00  0.00   662     9.49    666     0.0  0.00   0.0   0.026   0.000   70.7    53   52.7   69.4   9.82  .0742    0.015   213    5    100.0   10 
 9/22/17  2:10p   59.4   61.1   59.4    80   53.2   5.0   NNE   0.83   8.0     N   59.3   59.2   59.1   69.9  30.070  0.00  0.00   656     9.40    659     0.0  0.00   0.0   0.039   0.000   70.8    53   52.8   69.6   9.82  .0742    0.000   212    5    100.0   10 
 9/22/17  2:20p   59.9   59.9   59.3    82   54.4   5.0     N   0.83   9.0   NNE   59.9   59.9   59.9   70.7  30.079  0.00  0.00   646     9.26    652     0.0  0.00   0.0   0.035   0.000   70.9    53   52.9   69.7   9.81  .0742    0.000   210    5    100.0   10 
 9/22/17  2:30p   61.1   61.1   60.0    81   55.2   6.0    NE   1.00  10.0    NE   60.9   61.2   61.0   71.8  30.081  0.00  0.00   636     9.12    642     0.0  0.00   0.0   0.027   0.000   71.0    53   53.0   69.8   9.81  .0742    0.000   213    5    100.0   10 
 9/22/17  2:40p   61.8   61.9   61.1    80   55.6   6.0    NE   1.00  10.0    NE   61.8   62.0   62.0   72.7  30.083  0.00  0.00   626     8.97    633     0.0  0.00   0.0   0.022   0.000   71.1    54   53.6   70.1   9.93  .0741    0.000   210    5    100.0   10 
 9/22/17  2:50p   62.0   62.0   61.7    81   56.1   7.0    NE   1.17  11.0    NE   61.7   62.2   61.9   72.4  30.085  0.00  0.00   611     8.76    622     0.0  0.00   0.0   0.021   0.000   71.2    54   53.7   70.2   9.93  .0741    0.000   213    5    100.0   10 
 9/22/17  3:00p   62.4   62.4   61.9    80   56.1   7.0    NE   1.17  13.0   NNE   62.2   62.6   62.4   72.8  30.090  0.00  0.00   596     8.54    605     0.0  0.00   0.0   0.018   0.000   71.4    54   53.9   70.5   9.92  .0741    0.014   212    5    100.0   10 
 9/22/17  3:10p   62.7   62.8   62.4    78   55.7   6.0    NE   1.00  10.0    NE   62.7   62.8   62.8   73.2  30.091  0.00  0.00   571     8.19    592     0.0  0.00   0.0   0.016   0.000   71.5    54   54.0   70.7   9.92  .0741    0.000   212    5    100.0   10 
 9/22/17  3:20p   62.7   62.8   62.3    78   55.7   6.0    NE   1.00  11.0   ENE   62.7   62.8   62.8   73.1  30.088  0.00  0.00   550     7.88    570     0.0  0.00   0.0   0.016   0.000   71.6    54   54.1   70.8   9.92  .0741    0.000   213    5    100.0   10 
 9/22/17  3:30p   62.9   62.9   62.5    78   55.9   6.0    NE   1.00  12.0    NE   62.9   63.0   63.0   73.4  30.081  0.00  0.00   548     7.86    555     0.0  0.00   0.0   0.015   0.000   71.8    54   54.3   71.1   9.91  .0740    0.000   212    5    100.0   10 
 9/22/17  3:40p   62.6   63.1   62.6    78   55.6   8.0    NE   1.33  11.0    NE   61.6   62.7   61.7   71.5  30.083  0.00  0.00   543     7.78    545     0.0  0.00   0.0   0.017   0.000   71.9    54   54.3   71.3   9.91  .0740    0.000   212    5    100.0   10 
 9/22/17  3:50p   62.2   62.5   62.1    80   56.0   9.0    NE   1.50  12.0    NE   60.2   62.4   60.4   69.9  30.081  0.00  0.00   547     7.84    566     0.0  0.00   0.0   0.019   0.000   72.1    54   54.5   71.6   9.91  .0740    0.000   212    5    100.0   10 
 9/22/17  4:00p   62.5   62.5   62.2    79   55.9   8.0    NE   1.33  11.0    NE   61.5   62.7   61.7   71.7  30.083  0.00  0.00   547     7.84    584     0.0  0.00   0.0   0.017   0.000   72.2    54   54.6   71.7   9.91  .0739    0.013   213    5    100.0   10 
 9/22/17  4:10p   62.0   62.8   62.0    79   55.4   8.0    NE   1.33  11.0   NNE   60.9   62.1   61.0   70.3  30.082  0.00  0.00   468     6.71    584     0.0  0.00   0.0   0.021   0.000   72.4    54   54.8   72.0   9.90  .0739    0.000   210    5    100.0   10 
 9/22/17  4:20p   61.8   62.0   61.8    81   55.9   7.0    NE   1.17  10.0    NE   61.4   62.0   61.6   70.9  30.081  0.00  0.00   436     6.25    485     0.0  0.00   0.0   0.022   0.000   72.6    54   55.0   72.3   9.90  .0739    0.000   212    5    100.0   10 
 9/22/17  4:30p   62.4   62.5   61.9    80   56.1   6.0   NNE   1.00  11.0   NNE   62.4   62.6   62.6   72.6  30.081  0.00  0.00   455     6.52    515     0.0  0.00   0.0   0.018   0.000   72.7    54   55.1   72.5   9.90  .0739    0.000   213    5    100.0   10 
 9/22/17  4:40p   62.8   62.8   62.3    80   56.5   5.0    NE   0.83   9.0    NE   62.8   63.1   63.1   73.1  30.083  0.00  0.00   444     6.36    471     0.0  0.00   0.0   0.015   0.000   72.9    54   55.3   72.8   9.89  .0738    0.000   212    5    100.0   10 
 9/22/17  4:50p   62.9   63.1   62.8    80   56.6   5.0    NE   0.83  11.0   ENE   62.9   63.2   63.2   72.1  30.082  0.00  0.00   367     5.26    415     0.0  0.00   0.0   0.015   0.000   72.9    54   55.3   72.8   9.89  .0738    0.000   213    5    100.0   10 
 9/22/17  5:00p   62.6   62.9   62.6    80   56.3   5.0    NE   0.83  11.0    NE   62.6   62.9   62.9   70.3  30.081  0.00  0.00   292     4.19    350     0.0  0.00   0.0   0.017   0.000   72.9    54   55.3   72.8   9.89  .0738    0.010   212    5    100.0   10 
 9/22/17  5:10p   62.0   62.5   62.0    81   56.1   5.0   NNE   0.83  10.0     N   62.0   62.2   62.2   68.2  30.077  0.00  0.00   230     3.30    309     0.0  0.00   0.0   0.021   0.000   72.9    53   54.8   72.7   9.73  .0738    0.000   212    5    100.0   10 
 9/22/17  5:20p   61.1   62.0   61.1    82   55.6   5.0    NE   0.83   9.0   NNE   61.1   61.2   61.2   66.1  30.081  0.00  0.00   193     2.77    236     0.0  0.00   0.0   0.027   0.000   73.0    53   54.9   72.8   9.73  .0738    0.000   210    5    100.0   10 
 9/22/17  5:30p   61.8   61.8   61.1    83   56.6   5.0    NE   0.83   9.0    NE   61.8   62.0   62.0   70.2  30.085  0.00  0.00   299     4.29    380     0.0  0.00   0.0   0.022   0.000   73.0    53   54.9   72.8   9.73  .0738    0.000   213    5    100.0   10 
 9/22/17  5:40p   62.1   62.1   61.8    83   56.9   6.0    NE   1.00   9.0    NE   62.1   62.4   62.4   70.9  30.082  0.00  0.00   320     4.59    359     0.0  0.00   0.0   0.020   0.000   73.0    53   54.9   72.8   9.73  .0738    0.000   211    5    100.0   10 
 9/22/17  5:50p   61.6   62.2   61.6    82   56.0   6.0    NE   1.00  10.0    NE   61.5   61.8   61.7   67.7  30.080  0.00  0.00   203     2.91    313     0.0  0.00   0.0   0.024   0.000   73.0    53   54.9   72.8   9.73  .0738    0.000   211    5    100.0   10 
 9/22/17  6:00p   60.6   61.6   60.6    82   55.1   5.0    NE   0.83   8.0   NNE   60.6   60.6   60.6   63.3  30.083  0.00  0.00   109     1.56    135     0.0  0.00   0.0   0.031   0.000   73.0    53   54.9   72.8   9.73  .0738    0.005   214    5    100.0   10 
 9/22/17  6:10p   59.8   60.5   59.8    84   55.0   4.0   NNE   0.67   7.0   NNE   59.8   59.8   59.8   61.2  30.083  0.00  0.00    74     1.06     90     0.0  0.00   0.0   0.036   0.000   73.0    53   54.9   72.8   9.73  .0738    0.000   212    5    100.0   10 
 9/22/17  6:20p   59.3   59.8   59.3    85   54.8   3.0    NE   0.50   6.0   NNE   59.3   59.3   59.3   59.9  30.083  0.00  0.00    54     0.77     62     0.0  0.00   0.0   0.040   0.000   72.9    53   54.8   72.7   9.73  .0738    0.000   210    5    100.0   10 
 9/22/17  6:30p   59.1   59.3   59.1    85   54.6   3.0   ENE   0.50   5.0    NE   59.1   59.1   59.1   59.2  30.081  0.00  0.00    41     0.59     47     0.0  0.00   0.0   0.041   0.000   72.9    53   54.8   72.7   9.73  .0738    0.000   213    5    100.0   10 
 9/22/17  6:40p   58.8   59.1   58.8    86   54.6   4.0    NE   0.67   6.0    NE   58.8   58.8   58.8   58.4  30.083  0.00  0.00    29     0.42     37     0.0  0.00   0.0   0.043   0.000   72.9    54   55.3   72.8   9.89  .0738    0.000   211    5    100.0   10 
 9/22/17  6:50p   58.7   58.8   58.7    87   54.8   3.0   NNE   0.50   6.0   NNE   58.7   58.8   58.8   58.4  30.082  0.00  0.00    29     0.42     37     0.0  0.00   0.0   0.044   0.000   72.8    54   55.2   72.6   9.89  .0738    0.000   213    5    100.0   10 
 9/22/17  7:00p   58.5   58.8   58.5    87   54.6   3.0   ENE   0.50   5.0    NE   58.5   58.5   58.5   56.4  30.083  0.00  0.00    14     0.20     23     0.0  0.00   0.0   0.045   0.000   72.8    54   55.2   72.6   9.89  .0738    0.001   214    5    100.0   10 
 9/22/17  7:10p   58.3   58.5   58.3    87   54.4   3.0   ENE   0.50   5.0   NNE   58.3   58.3   58.3   56.1  30.087  0.00  0.00     7     0.10      9     0.0  0.00   0.0   0.047   0.000   72.8    54   55.2   72.6   9.89  .0739    0.000   213    5    100.0   10 
 9/22/17  7:20p   58.0   58.3   58.0    88   54.5   3.0   ENE   0.50   5.0    NE   58.0   58.0   58.0   55.6  30.086  0.00  0.00     0     0.00      0     0.0  0.00   0.0   0.049   0.000   72.7    54   55.1   72.5   9.90  .0739    0.000   212    5    100.0   10 
 9/22/17  7:30p   57.7   58.0   57.7    88   54.2   3.0   ENE   0.50   6.0   ENE   57.7   57.7   57.7   55.3  30.086  0.00  0.00     0     0.00      0     0.0  0.00   0.0   0.051   0.000   72.7    54   55.1   72.5   9.90  .0739    0.000   213    5    100.0   10 
 9/22/17  7:40p   57.6   57.7   57.6    88   54.1   3.0   ENE   0.50   7.0   ENE   57.6   57.6   57.6   55.2  30.090  0.00  0.00     0     0.00      0     0.0  0.00   0.0   0.051   0.000   72.6    54   55.0   72.3   9.90  .0739    0.000   212    5    100.0   10 
 9/22/17  7:50p   57.5   57.6   57.5    89   54.3   3.0   ENE   0.50   6.0    NE   57.5   57.6   57.6   55.2  30.091  0.00  0.00     0     0.00      0     0.0  0.00   0.0   0.052   0.000   72.5    54   54.9   72.2   9.90  .0739    0.000   212    5    100.0   10 
 9/22/17  8:00p   57.6   57.7   57.5    89   54.4   3.0   ENE   0.50   9.0   ENE   57.6   57.7   57.7   55.3  30.090  0.00  0.00     0     0.00      0     0.0  0.00   0.0   0.051   0.000   72.5    54   54.9   72.2   9.90  .0739    0.000   210    5    100.0   10 
 9/22/17  8:10p   57.8   57.8   57.6    88   54.3   4.0   ENE   0.67   8.0   ENE   57.8   57.8   57.8   55.4  30.087  0.00  0.00     0     0.00      0     0.0  0.00   0.0   0.050   0.000   72.5    54   54.9   72.2   9.90  .0739    0.000   211    5    100.0   10 
 9/22/17  8:20p   57.8   57.9   57.8    88   54.3   4.0   ENE   0.67   9.0    NE   57.8   57.8   57.8   55.4  30.086  0.00  0.00     0     0.00      0     0.0  0.00   0.0   0.050   0.000   72.5    54   54.9   72.2   9.90  .0739    0.000   209    5    100.0   10 
 9/22/17  8:30p   57.8   57.8   57.8    88   54.3   3.0   ENE   0.50   8.0   ENE   57.8   57.8   57.8   55.4  30.086  0.00  0.00     0     0.00      0     0.0  0.00   0.0   0.050   0.000   72.4    54   54.8   72.0   9.90  .0739    0.000   213    5    100.0   10 
 9/22/17  8:40p   57.7   57.8   57.6    88   54.2   2.0   ENE   0.33   8.0   ENE   57.7   57.7   57.7   55.3  30.086  0.00  0.00     0     0.00      0     0.0  0.00   0.0   0.051   0.000   72.4    54   54.8   72.0   9.90  .0739    0.000   213    5    100.0   10 
 9/22/17  8:50p   57.5   57.6   57.5    88   54.0   2.0   ENE   0.33   7.0   ENE   57.5   57.5   57.5   55.1  30.085  0.00  0.00     0     0.00      0     0.0  0.00   0.0   0.052   0.000   72.4    54   54.8   72.0   9.90  .0739    0.000   214    5    100.0   10 
 9/22/17  9:00p   57.4   57.5   57.4    88   53.9   2.0   ENE   0.33   5.0   ENE   57.4   57.4   57.4   55.0  30.089  0.00  0.00     0     0.00      0     0.0  0.00   0.0   0.053   0.000   72.4    54   54.8   72.0   9.90  .0739    0.001   212    5    100.0   10 
 9/22/17  9:10p   57.3   57.4   57.3    88   53.8   2.0   ENE   0.33   5.0   ENE   57.3   57.3   57.3   54.9  30.091  0.00  0.00     0     0.00      0     0.0  0.00   0.0   0.053   0.000   72.4    54   54.8   72.0   9.90  .0739    0.000   213    5    100.0   10 
 9/22/17  9:20p   57.3   57.3   57.2    89   54.1   2.0   ENE   0.33   8.0   ENE   57.3   57.4   57.4   55.0  30.092  0.00  0.00     0     0.00      0     0.0  0.00   0.0   0.053   0.000   72.4    54   54.8   72.0   9.90  .0739    0.000   214    5    100.0   10 
 9/22/17  9:30p   57.4   57.4   57.3    89   54.2   1.0   ENE   0.17   7.0   ENE   57.4   57.5   57.5   55.1  30.090  0.00  0.00     0     0.00      0     0.0  0.00   0.0   0.053   0.000   72.4    54   54.8   72.0   9.90  .0739    0.000   213    5    100.0   10 
 9/22/17  9:40p   57.3   57.4   57.3    89   54.1   0.0   ENE   0.00   3.0   ENE   57.3   57.4   57.4   55.0  30.088  0.00  0.00     0     0.00      0     0.0  0.00   0.0   0.053   0.000   72.4    54   54.8   72.0   9.90  .0739    0.000   212    5    100.0   10 
 9/22/17  9:50p   57.3   57.4   57.2    88   53.8   0.0   ENE   0.00   2.0   ENE   57.3   57.3   57.3   54.9  30.092  0.00  0.00     0     0.00      0     0.0  0.00   0.0   0.053   0.000   72.5    54   54.9   72.2   9.90  .0739    0.000   213    5    100.0   10 
 9/22/17 10:00p   57.1   57.3   57.1    89   53.9   0.0   ENE   0.00   3.0    NE   57.1   57.2   57.2   54.8  30.092  0.00  0.00     0     0.00      0     0.0  0.00   0.0   0.055   0.000   72.5    54   54.9   72.2   9.90  .0739    0.000   211    5    100.0   10 
 9/22/17 10:10p   56.9   57.1   56.9    89   53.7   0.0   ENE   0.00   1.0   ENE   56.9   57.0   57.0   54.6  30.092  0.00  0.00     0     0.00      0     0.0  0.00   0.0   0.056   0.000   72.5    54   54.9   72.2   9.90  .0739    0.000   212    5    100.0   10 
 9/22/17 10:20p   56.8   56.9   56.8    89   53.6   0.0     E   0.00   3.0   ENE   56.8   56.9   56.9   54.5  30.090  0.00  0.00     0     0.00      0     0.0  0.00   0.0   0.057   0.000   72.5    54   54.9   72.2   9.90  .0739    0.000   212    5    100.0   10 
 9/22/17 10:30p   56.7   56.8   56.7    89   53.5   0.0   ENE   0.00   2.0     E   56.7   56.8   56.8   54.4  30.093  0.00  0.00     0     0.00      0     0.0  0.00   0.0   0.058   0.000   72.5    54   54.9   72.2   9.90  .0739    0.000   210    5    100.0   10 
 9/22/17 10:40p   56.6   56.7   56.6    89   53.4   0.0     E   0.00   2.0     E   56.6   56.7   56.7   54.3  30.091  0.00  0.00     0     0.00      0     0.0  0.00   0.0   0.058   0.000   72.5    54   54.9   72.2   9.90  .0739    0.000   213    5    100.0   10 
 9/22/17 10:50p   56.4   56.6   56.4    89   53.2   0.0   ESE   0.00   2.0   ESE   56.4   56.5   56.5   54.1  30.089  0.00  0.00     0     0.00      0     0.0  0.00   0.0   0.060   0.000   72.5    54   54.9   72.2   9.90  .0739    0.000   214    5    100.0   10 
 9/22/17 11:00p   56.3   56.4   56.3    90   53.4   0.0   ESE   0.00   2.0   ESE   56.3   56.4   56.4   54.0  30.089  0.00  0.00     0     0.00      0     0.0  0.00   0.0   0.060   0.000   72.5    54   54.9   72.2   9.90  .0739    0.000   211    5    100.0   10 
 9/22/17 11:10p   56.0   56.3   56.0    89   52.8   0.0   ESE   0.00   2.0   ESE   56.0   56.1   56.1   53.6  30.086  0.00  0.00     0     0.00      0     0.0  0.00   0.0   0.063   0.000   72.5    54   54.9   72.2   9.90  .0739    0.000   213    5    100.0   10 
 9/22/17 11:20p   55.9   56.0   55.9    90   53.0   1.0   ESE   0.17   2.0   ESE   55.9   56.0   56.0   53.6  30.085  0.00  0.00     0     0.00      0     0.0  0.00   0.0   0.063   0.000   72.5    54   54.9   72.2   9.90  .0739    0.000   214    5    100.0   10 
 9/22/17 11:30p   56.1   56.1   55.9    90   53.2   0.0   ENE   0.00   3.0   ESE   56.1   56.2   56.2   53.8  30.083  0.00  0.00     0     0.00      0     0.0  0.00   0.0   0.062   0.000   72.5    54   54.9   72.2   9.90  .0739    0.000   210    5    100.0   10 
 9/22/17 11:40p   56.0   56.2   56.0    91   53.4   0.0     E   0.00   2.0     E   56.0   56.1   56.1   53.7  30.084  0.00  0.00     0     0.00      0     0.0  0.00   0.0   0.063   0.000   72.5    54   54.9   72.2   9.90  .0739    0.000   212    5    100.0   10 
 9/22/17 11:50p   55.8   56.0   55.8    91   53.2   0.0   ---   0.00   0.0   ---   55.8   55.9   55.9   53.5  30.089  0.00  0.00     0     0.00      0     0.0  0.00   0.0   0.064   0.000   72.4    54   54.8   72.0   9.90  .0739    0.000   212    5    100.0   10 
 9/23/17 12:00a   55.8   55.8   55.8    91   53.2   0.0   ---   0.00   0.0   ---   55.8   55.9   55.9   53.5  30.092  0.00  0.00     0     0.00      0     0.0  0.00   0.0   0.064   0.000   72.4    54   54.8   72.0   9.90  .0739    0.000   212    5    100.0   10 
 9/23/17 12:10a   55.8   55.9   55.8    91   53.2   0.0   ESE   0.00   1.0   ESE   55.8   55.9   55.9   53.5  30.091  0.00  0.00     0     0.00      0     0.0  0.00   0.0   0.064   0.000   72.4    54   54.8   72.0   9.90  .0739    0.000   211    5    100.0   10 
 9/23/17 12:20a   55.7   55.8   55.7    91   53.1   0.0   ESE   0.00   2.0     E   55.7   55.8   55.8   53.4  30.088  0.00  0.00     0     0.00      0     0.0  0.00   0.0   0.065   0.000   72.4    54   54.8   72.0   9.90  .0739    0.000   213    5    100.0   10 
 9/23/17 12:30a   55.7   55.8   55.7    92   53.4   0.0     E   0.00   2.0     E   55.7   55.8   55.8   53.4  30.086  0.00  0.00     0     0.00      0     0.0  0.00   0.0   0.065   0.000   72.4    54   54.8   72.0   9.90  .0739    0.000   211    5    100.0   10 
 9/23/17 12:40a   55.6   55.8   55.6    92   53.3   0.0   ESE   0.00   2.0   ESE   55.6   55.7   55.7   53.3  30.086  0.00  0.00     0     0.00      0     0.0  0.00   0.0   0.065   0.000   72.4    54   54.8   72.0   9.90  .0739    0.000   213    5    100.0   10 
 9/23/17 12:50a   55.3   55.6   55.3    92   53.0   0.0   ---   0.00   0.0   ---   55.3   55.4   55.4   53.0  30.089  0.00  0.00     0     0.00      0     0.0  0.00   0.0   0.067   0.000   72.3    54   54.7   71.9   9.90  .0739    0.000   213    5    100.0   10 
 9/23/17  1:00a   55.3   55.3   55.2    92   53.0   0.0    SE   0.00   1.0    SE   55.3   55.4   55.4   53.0  30.086  0.00  0.00     0     0.00      0     0.0  0.00   0.0   0.067   0.000   72.3    54   54.7   71.9   9.90  .0739    0.000   213    5    100.0   10 
 9/23/17  1:10a   55.0   55.3   55.0    92   52.7   0.0    SE   0.00   2.0    SE   55.0   55.1   55.1   52.6  30.085  0.00  0.00     0     0.00      0     0.0  0.00   0.0   0.069   0.000   72.3    54   54.7   71.9   9.90  .0739    0.000   211    5    100.0   10 
 9/23/17  1:20a   55.0   55.0   54.9    92   52.7   0.0    SE   0.00   1.0    SE   55.0   55.1   55.1   52.6  30.089  0.00  0.00     0     0.00      0     0.0  0.00   0.0   0.069   0.000   72.3    54   54.7   71.9   9.90  .0739    0.000   214    5    100.0   10 
 9/23/17  1:30a   54.8   55.0   54.8    92   52.5   0.0    SE   0.00   1.0    SE   54.8   54.9   54.9   52.4  30.086  0.00  0.00     0     0.00      0     0.0  0.00   0.0   0.071   0.000   72.3    54   54.7   71.9   9.90  .0739    0.000   211    5    100.0   10 
 9/23/17  1:40a   54.7   54.8   54.7    93   52.7   0.0    SE   0.00   1.0    SE   54.7   54.9   54.9   52.4  30.086  0.00  0.00     0     0.00      0     0.0  0.00   0.0   0.072   0.000   72.3    54   54.7   71.9   9.90  .0739    0.000   211    5    100.0   10 
 9/23/17  1:50a   55.0   55.0   54.7    93   53.0   0.0   ESE   0.00   2.0   ESE   55.0   55.2   55.2   52.8  30.085  0.00  0.00     0     0.00      0     0.0  0.00   0.0   0.069   0.000   72.2    54   54.6   71.7   9.91  .0740    0.000   213    5    100.0   10 
 9/23/17  2:00a   55.0   55.0   54.9    93   53.0   0.0   ---   0.00   0.0   ---   55.0   55.2   55.2   52.8  30.083  0.00  0.00     0     0.00      0     0.0  0.00   0.0   0.069   0.000   72.2    54   54.6   71.7   9.91  .0739    0.000   213    5    100.0   10 
 9/23/17  2:10a   54.8   55.0   54.8    93   52.8   0.0   ---   0.00   0.0   ---   54.8   55.0   55.0   52.5  30.083  0.00  0.00     0     0.00      0     0.0  0.00   0.0   0.071   0.000   72.2    53   54.1   71.6   9.76  .0740    0.000   214    5    100.0   10 
 9/23/17  2:20a   54.4   54.9   54.4    93   52.4   0.0   ---   0.00   0.0   ---   54.4   54.6   54.6   52.1  30.090  0.00  0.00     0     0.00      0     0.0  0.00   0.0   0.074   0.000   72.2    53   54.1   71.6   9.76  .0740    0.000   209    5    100.0   10 
 9/23/17  2:30a   54.4   54.4   54.3    93   52.4   0.0   ---   0.00   0.0   ---   54.4   54.6   54.6   52.1  30.086  0.00  0.00     0     0.00      0     0.0  0.00   0.0   0.074   0.000   72.2    53   54.1   71.6   9.76  .0740    0.000   211    5    100.0   10 
 9/23/17  2:40a   54.4   54.4   54.4    93   52.4   0.0   ---   0.00   0.0   ---   54.4   54.6   54.6   52.1  30.080  0.00  0.00     0     0.00      0     0.0  0.00   0.0   0.074   0.000   72.1    53   54.0   71.5   9.77  .0740    0.000   212    5    100.0   10 
 9/23/17  2:50a   54.6   54.6   54.4    93   52.6   0.0   ---   0.00   0.0   ---   54.6   54.8   54.8   52.3  30.084  0.00  0.00     0     0.00      0     0.0  0.00   0.0   0.072   0.000   72.1    53   54.0   71.5   9.77  .0740    0.000   212    5    100.0   10 
 9/23/17  3:00a   54.6   54.6   54.5    94   52.9   0.0   ---   0.00   0.0   ---   54.6   54.8   54.8   52.3  30.088  0.00  0.00     0     0.00      0     0.0  0.00   0.0   0.072   0.000   72.1    53   54.0   71.5   9.77  .0740    0.000   211    5    100.0   10 
 9/23/17  3:10a   54.5   54.6   54.5    93   52.5   0.0   ---   0.00   0.0   ---   54.5   54.7   54.7   52.2  30.082  0.00  0.00     0     0.00      0     0.0  0.00   0.0   0.073   0.000   72.1    53   54.0   71.5   9.77  .0740    0.000   213    5    100.0   10 
 9/23/17  3:20a   54.3   54.5   54.3    94   52.6   0.0   ---   0.00   0.0   ---   54.3   54.5   54.5   52.0  30.083  0.00  0.00     0     0.00      0     0.0  0.00   0.0   0.074   0.000   72.0    53   53.9   71.3   9.77  .0740    0.000   212    5    100.0   10 
 9/23/17  3:30a   54.0   54.4   54.0    93   52.0   0.0   ---   0.00   0.0   ---   54.0   54.2   54.2   51.7  30.079  0.00  0.00     0     0.00      0     0.0  0.00   0.0   0.076   0.000   72.0    53   53.9   71.3   9.77  .0740    0.000   210    5    100.0   10 
 9/23/17  3:40a   53.8   54.0   53.8    94   52.1   0.0   ---   0.00   0.0   ---   53.8   54.0   54.0   51.5  30.079  0.00  0.00     0     0.00      0     0.0  0.00   0.0   0.078   0.000   72.0    53   53.9   71.3   9.77  .0740    0.000   213    5    100.0   10 
 9/23/17  3:50a   54.0   54.0   53.8    94   52.3   0.0   ---   0.00   0.0   ---   54.0   54.2   54.2   51.7  30.077  0.00  0.00     0     0.00      0     0.0  0.00   0.0   0.076   0.000   72.0    53   53.9   71.3   9.77  .0740    0.000   211    5    100.0   10 
 9/23/17  4:00a   53.9   54.0   53.8    94   52.2   0.0   ---   0.00   0.0   ---   53.9   54.1   54.1   51.6  30.076  0.00  0.00     0     0.00      0     0.0  0.00   0.0   0.077   0.000   72.0    53   53.9   71.3   9.77  .0740    0.000   210    5    100.0   10 
 9/23/17  4:10a   53.8   53.9   53.8    94   52.1   0.0   ---   0.00   0.0   ---   53.8   54.0   54.0   51.5  30.077  0.00  0.00     0     0.00      0     0.0  0.00   0.0   0.078   0.000   71.9    53   53.8   71.2   9.77  .0740    0.000   214    5    100.0   10 
 9/23/17  4:20a   53.7   53.8   53.7    94   52.0   0.0   ---   0.00   0.0   ---   53.7   53.9   53.9   51.4  30.075  0.00  0.00     0     0.00      0     0.0  0.00   0.0   0.078   0.000   71.9    53   53.8   71.2   9.77  .0740    0.000   212    5    100.0   10 
 9/23/17  4:30a   53.8   53.8   53.7    94   52.1   0.0   ---   0.00   0.0   ---   53.8   54.0   54.0   51.5  30.076  0.00  0.00     0     0.00      0     0.0  0.00   0.0   0.078   0.000   71.8    53   53.7   71.0   9.78  .0740    0.000   210    5    100.0   10 
 9/23/17  4:40a   53.9   53.9   53.8    94   52.2   0.0   ---   0.00   0.0   ---   53.9   54.1   54.1   51.6  30.075  0.00  0.00     0     0.00      0     0.0  0.00   0.0   0.077   0.000   71.8    53   53.7   71.0   9.78  .0740    0.000   214    5    100.0   10 
 9/23/17  4:50a   53.8   53.9   53.8    94   52.1   0.0   ---   0.00   0.0   ---   53.8   54.0   54.0   51.5  30.076  0.00  0.00     0     0.00      0     0.0  0.00   0.0   0.078   0.000   71.8    53   53.7   71.0   9.78  .0740    0.000   212    5    100.0   10 
 9/23/17  5:00a   53.7   53.8   53.7    94   52.0   0.0   ---   0.00   0.0   ---   53.7   53.9   53.9   51.4  30.073  0.00  0.00     0     0.00      0     0.0  0.00   0.0   0.078   0.000   71.8    53   53.7   71.0   9.78  .0740    0.000   212    5    100.0   10 
 9/23/17  5:10a   53.7   53.7   53.6    94   52.0   0.0   ---   0.00   0.0   ---   53.7   53.9   53.9   51.4  30.075  0.00  0.00     0     0.00      0     0.0  0.00   0.0   0.078   0.000   71.7    53   53.7   70.9   9.78  .0740    0.000   212    5    100.0   10 
 9/23/17  5:20a   53.7   53.7   53.6    94   52.0   0.0   ---   0.00   0.0   ---   53.7   53.9   53.9   51.4  30.075  0.00  0.00     0     0.00      0     0.0  0.00   0.0   0.078   0.000   71.7    53   53.7   70.9   9.78  .0740    0.000   212    5    100.0   10 
 9/23/17  5:30a   53.7   53.8   53.7    94   52.0   0.0   ---   0.00   0.0   ---   53.7   53.9   53.9   51.4  30.078  0.00  0.00     0     0.00      0     0.0  0.00   0.0   0.078   0.000   71.7    53   53.7   70.9   9.78  .0740    0.000   212    5    100.0   10 
 9/23/17  5:40a   53.9   53.9   53.7    95   52.5   0.0   ---   0.00   0.0   ---   53.9   54.1   54.1   51.6  30.078  0.00  0.00     0     0.00      0     0.0  0.00   0.0   0.077   0.000   71.6    53   53.6   70.7   9.79  .0741    0.000   212    5    100.0   10 
 9/23/17  5:50a   54.0   54.1   53.9    94   52.3   0.0   ---   0.00   0.0   ---   54.0   54.2   54.2   51.7  30.078  0.00  0.00     0     0.00      0     0.0  0.00   0.0   0.076   0.000   71.6    53   53.6   70.7   9.79  .0741    0.000   210    5    100.0   10 
 9/23/17  6:00a   54.2   54.2   54.0    95   52.8   0.0   ---   0.00   0.0   ---   54.2   54.4   54.4   51.9  30.075  0.00  0.00     0     0.00      0     0.0  0.00   0.0   0.075   0.000   71.6    53   53.6   70.7   9.79  .0741    0.000   211    5    100.0   10 
 9/23/17  6:10a   53.9   54.2   53.9    95   52.5   0.0   ---   0.00   0.0   ---   53.9   54.1   54.1   51.6  30.083  0.00  0.00     0     0.00      0     0.0  0.00   0.0   0.077   0.000   71.6    53   53.6   70.7   9.79  .0741    0.000   212    5    100.0   10 
 9/23/17  6:20a   54.0   54.1   53.9    94   52.3   0.0   ---   0.00   0.0   ---   54.0   54.2   54.2   51.7  30.085  0.00  0.00     0     0.00      0     0.0  0.00   0.0   0.076   0.000   71.6    53   53.6   70.7   9.79  .0741    0.000   212    5    100.0   10 
 9/23/17  6:30a   53.7   54.0   53.7    94   52.0   0.0   ---   0.00   0.0   ---   53.7   53.9   53.9   51.4  30.086  0.00  0.00     0     0.00      0     0.0  0.00   0.0   0.078   0.000   71.5    53   53.5   70.6   9.79  .0741    0.000   213    5    100.0   10 
 9/23/17  6:40a   53.4   53.7   53.4    94   51.7   0.0   ---   0.00   0.0   ---   53.4   53.6   53.6   51.1  30.089  0.00  0.00     0     0.00      0     0.0  0.00   0.0   0.081   0.000   71.5    53   53.5   70.6   9.79  .0741    0.000   214    5    100.0   10 
 9/23/17  6:50a   53.1   53.4   53.1    94   51.4   0.0   ---   0.00   0.0   ---   53.1   53.4   53.4   50.9  30.089  0.00  0.00     0     0.00      0     0.0  0.00   0.0   0.083   0.000   71.5    53   53.5   70.6   9.79  .0741    0.000   213    5    100.0   10 
 9/23/17  7:00a   52.7   53.1   52.7    94   51.0   0.0   SSE   0.00   1.0   SSE   52.7   53.0   53.0   50.5  30.091  0.00  0.00     0     0.00      0     0.0  0.00   0.0   0.085   0.000   71.4    53   53.4   70.4   9.79  .0741    0.000   212    5    100.0   10 
 9/23/17  7:10a   52.3   52.7   52.3    94   50.6   1.0    SE   0.17   2.0    SE   52.3   52.6   52.6   50.0  30.094  0.00  0.00     0     0.00      0     0.0  0.00   0.0   0.088   0.000   71.4    53   53.4   70.4   9.79  .0741    0.000   213    5    100.0   10 
 9/23/17  7:20a   52.4   52.4   52.3    95   51.0   0.0    SE   0.00   2.0    SE   52.4   52.7   52.7   50.2  30.094  0.00  0.00     2     0.03      5     0.0  0.00   0.0   0.087   0.000   71.4    53   53.4   70.4   9.79  .0741    0.000   212    5    100.0   10 
 9/23/17  7:30a   52.8   52.8   52.4    95   51.4   0.0   SSE   0.00   2.0   SSE   52.8   53.1   53.1   50.7  30.092  0.00  0.00     6     0.09      7     0.0  0.00   0.0   0.085   0.000   71.4    53   53.4   70.4   9.79  .0741    0.000   212    5    100.0   10 
 9/23/17  7:40a   52.9   52.9   52.8    95   51.5   0.0   SSE   0.00   1.0   SSE   52.9   53.2   53.2   50.9  30.097  0.00  0.00    11     0.16     18     0.0  0.00   0.0   0.084   0.000   71.4    53   53.4   70.4   9.79  .0741    0.000   214    5    100.0   10 
 9/23/17  7:50a   53.2   53.2   52.9    95   51.8   0.0   ---   0.00   0.0   ---   53.2   53.5   53.5   52.5  30.099  0.00  0.00    19     0.27     19     0.0  0.00   0.0   0.082   0.000   71.3    53   53.3   70.3   9.80  .0742    0.000   212    5    100.0   10 
 9/23/17  8:00a   52.8   53.2   52.8    94   51.1   1.0    SE   0.17   3.0    SE   52.8   53.1   53.1   52.3  30.100  0.00  0.00    24     0.34     30     0.0  0.00   0.0   0.085   0.000   71.3    53   53.3   70.3   9.80  .0742    0.000   213    5    100.0   10 
 9/23/17  8:10a   52.8   52.9   52.7    95   51.4   1.0    SE   0.17   4.0   ESE   52.8   53.1   53.1   53.1  30.097  0.00  0.00    41     0.59     47     0.0  0.00   0.0   0.085   0.000   71.3    53   53.3   70.3   9.80  .0742    0.000   214    5    100.0   10 
 9/23/17  8:20a   53.2   53.2   52.8    95   51.8   0.0    SE   0.00   1.0    SE   53.2   53.5   53.5   54.2  30.097  0.00  0.00    59     0.85     70     0.0  0.00   0.0   0.082   0.000   71.3    53   53.3   70.3   9.80  .0742    0.000   210    5    100.0   10 
 9/23/17  8:30a   53.4   53.4   53.2    94   51.7   0.0   SSE   0.00   2.0    SE   53.4   53.6   53.6   55.0  30.100  0.00  0.00    77     1.10     83     0.0  0.00   0.0   0.081   0.000   71.3    53   53.3   70.3   9.80  .0742    0.000   211    5    100.0   10 
 9/23/17  8:40a   53.3   53.4   53.3    95   51.9   1.0   SSE   0.17   4.0     S   53.3   53.6   53.6   55.0  30.105  0.00  0.00    81     1.16     83     0.0  0.00   0.0   0.081   0.000   71.3    53   53.3   70.3   9.80  .0742    0.000   213    5    100.0   10 
 9/23/17  8:50a   53.7   53.7   53.3    95   52.3   0.0    SE   0.00   2.0    SE   53.7   53.9   53.9   55.7  30.106  0.00  0.00    93     1.33    100     0.0  0.00   0.0   0.078   0.000   71.3    53   53.3   70.3   9.80  .0742    0.000   209    5    100.0   10 
 9/23/17  9:00a   54.4   54.4   53.8    95   53.0   0.0    SE   0.00   1.0    SE   54.4   54.6   54.6   56.6  30.115  0.00  0.00   101     1.45    107     0.0  0.00   0.0   0.074   0.000   71.3    53   53.3   70.3   9.80  .0742    0.001   212    5    100.0   10 
 9/23/17  9:10a   55.0   55.0   54.4    95   53.6   1.0   ENE   0.17   3.0    NE   55.0   55.2   55.2   56.3  30.118  0.00  0.00    79     1.13     84     0.0  0.00   0.0   0.069   0.000   71.3    53   53.3   70.3   9.80  .0742    0.000   212    5    100.0   10 
 9/23/17  9:20a   55.1   55.2   55.0    94   53.4   0.0   ENE   0.00   2.0   ENE   55.1   55.3   55.3   57.5  30.114  0.00  0.00   112     1.61    121     0.0  0.00   0.0   0.069   0.000   71.3    53   53.3   70.3   9.80  .0742    0.000   213    5    100.0   10 
 9/23/17  9:30a   54.7   55.1   54.6    94   53.0   0.0   SSW   0.00   3.0    SE   54.7   54.9   54.9   57.7  30.115  0.00  0.00   134     1.92    144     0.0  0.00   0.0   0.072   0.000   71.3    53   53.3   70.3   9.80  .0742    0.000   211    5    100.0   10 
 9/23/17  9:40a   54.9   54.9   54.6    94   53.2   0.0    SE   0.00   2.0    SE   54.9   55.1   55.1   58.4  30.116  0.00  0.00   154     2.21    165     0.0  0.00   0.0   0.070   0.000   71.4    53   53.4   70.4   9.79  .0742    0.000   214    5    100.0   10 
 9/23/17  9:50a   55.4   55.4   54.9    95   54.0   0.0    SE   0.00   1.0    SE   55.4   55.6   55.6   59.0  30.123  0.00  0.00   163     2.34    195     0.0  0.00   0.0   0.067   0.000   71.4    53   53.4   70.4   9.79  .0742    0.000   210    5    100.0   10 
 9/23/17 10:00a   55.9   55.9   55.4    95   54.5   0.0    SE   0.00   1.0    SE   55.9   56.1   56.1   59.2  30.116  0.00  0.00   158     2.26    190     0.0  0.00   0.0   0.063   0.000   71.4    53   53.4   70.4   9.79  .0742    0.003   213    5    100.0   10 
 9/23/17 10:10a   56.6   56.6   55.9    94   54.9   1.0     E   0.17   3.0   ENE   56.6   56.8   56.8   59.9  30.121  0.00  0.00   162     2.32    190     0.0  0.00   0.0   0.058   0.000   71.4    53   53.4   70.4   9.79  .0742    0.000   212    5    100.0   10 
 9/23/17 10:20a   57.1   57.1   56.6    94   55.4   0.0   ENE   0.00   3.0    NW   57.1   57.3   57.3   61.2  30.121  0.00  0.00   193     2.77    211     0.0  0.00   0.0   0.055   0.000   71.4    53   53.4   70.4   9.79  .0742    0.000   211    5    100.0   10 
 9/23/17 10:30a   57.0   57.1   56.8    94   55.3   1.0   NNW   0.17   3.0    NW   57.0   57.2   57.2   60.1  30.126  0.00  0.00   161     2.31    167     0.0  0.00   0.0   0.056   0.000   71.5    53   53.5   70.6   9.79  .0742    0.000   212    5    100.0   10 
 9/23/17 10:40a   57.0   57.1   56.9    94   55.3   1.0    NE   0.17   2.0    NE   57.0   57.2   57.2   60.1  30.124  0.00  0.00   162     2.32    190     0.0  0.00   0.0   0.056   0.000   71.5    53   53.5   70.6   9.79  .0742    0.000   213    5    100.0   10 
 9/23/17 10:50a   57.1   57.1   57.0    93   55.1   1.0    NE   0.17   2.0    NE   57.1   57.3   57.3   61.8  30.126  0.00  0.00   229     3.28    260     0.0  0.00   0.0   0.055   0.000   71.6    53   53.6   70.7   9.79  .0742    0.000   212    5    100.0   10 
 9/23/17 11:00a   57.2   57.2   57.1    93   55.2   2.0   NNE   0.33   3.0   NNE   57.2   57.4   57.4   63.6  30.125  0.00  0.00   305     4.37    345     0.0  0.00   0.0   0.054   0.000   71.6    53   53.6   70.7   9.79  .0742    0.004   213    5    100.0   10 
 9/23/17 11:10a   57.5   57.6   57.2    93   55.5   2.0   NNW   0.33   3.0   ENE   57.5   57.7   57.7   64.9  30.128  0.00  0.00   356     5.10    392     0.0  0.00   0.0   0.052   0.000   71.6    53   53.6   70.7   9.79  .0742    0.000   213    5    100.0   10 
 9/23/17 11:20a   57.1   57.5   57.1    92   54.8   1.0     N   0.17   2.0   NNW   57.1   57.2   57.2   64.4  30.126  0.00  0.00   364     5.22    457     0.0  0.00   0.0   0.055   0.000   71.7    53   53.7   70.9   9.78  .0742    0.000   212    5    100.0   10 
 9/23/17 11:30a   56.8   57.1   56.8    92   54.5   1.0    NW   0.17   2.0    NW   56.8   56.9   56.9   64.7  30.123  0.00  0.00   399     5.72    582     0.0  0.00   0.0   0.057   0.000   71.8    53   53.7   71.0   9.78  .0741    0.000   213    5    100.0   10 
 9/23/17 11:40a   56.8   56.9   56.8    92   54.5   1.0     W   0.17   3.0     W   56.8   56.9   56.9   64.1  30.121  0.00  0.00   374     5.36    459     0.0  0.00   0.0   0.057   0.000   71.8    53   53.7   71.0   9.78  .0741    0.000   213    5    100.0   10 
 9/23/17 11:50a   57.2   57.2   56.8    92   54.9   1.0   WSW   0.17   3.0    SW   57.2   57.3   57.3   67.2  30.120  0.00  0.00   542     7.77    631     0.0  0.00   0.0   0.054   0.000   71.9    53   53.8   71.2   9.77  .0741    0.000   213    5    100.0   10 
 9/23/17 12:00p   57.0   57.4   57.0    91   54.4   2.0    SW   0.33   3.0   SSW   57.0   57.1   57.1   66.5  30.118  0.00  0.00   512     7.34    578     0.0  0.00   0.0   0.056   0.000   71.9    53   53.8   71.2   9.77  .0741    0.009   213    5    100.0   10 
 9/23/17 12:10p   57.1   57.2   56.9    91   54.5   2.0    SW   0.33   4.0   SSW   57.1   57.2   57.2   68.0  30.118  0.00  0.00   654     9.38    773     0.0  0.00   0.0   0.055   0.000   72.0    53   53.9   71.3   9.77  .0741    0.000   213    5    100.0   10 
 9/23/17 12:20p   57.4   57.4   57.0    91   54.8   2.0    SW   0.33   4.0    SW   57.4   57.5   57.5   67.0  30.117  0.00  0.00   524     7.51    603     0.0  0.00   0.0   0.053   0.000   72.1    53   54.0   71.5   9.77  .0741    0.000   210    5    100.0   10 
 9/23/17 12:30p   57.3   57.4   57.3    90   54.4   2.0   WSW   0.33   4.0   WSW   57.3   57.4   57.4   65.7  30.118  0.00  0.00   449     6.44    550     0.0  0.00   0.0   0.053   0.000   72.1    53   54.0   71.5   9.77  .0741    0.000   212    5    100.0   10 
Email: AdamSPAM@StormwatchersRetreat.com (To send me email remove the word 'SPAM' from my email address.)